createdAt,value
2023-04-28T00:00:43.891Z,12.50
2023-04-28T00:03:12.712Z,12.40
2023-04-28T00:05:41.302Z,12.40
2023-04-28T00:08:12.048Z,12.40
2023-04-28T00:10:40.443Z,12.30
2023-04-28T00:13:08.711Z,12.20
2023-04-28T00:15:37.086Z,12.10
2023-04-28T00:18:05.608Z,12.20
2023-04-28T00:20:33.999Z,12.30
2023-04-28T00:23:02.270Z,12.30
2023-04-28T00:25:33.313Z,12.20
2023-04-28T00:28:01.731Z,12.20
2023-04-28T00:30:31.402Z,12.20
2023-04-28T00:32:59.793Z,12.30
2023-04-28T00:35:28.106Z,12.20
2023-04-28T00:37:56.376Z,12.20
2023-04-28T00:40:24.861Z,12.10
2023-04-28T00:42:54.580Z,12.00
2023-04-28T00:45:23.033Z,12.00
2023-04-28T00:47:51.463Z,12.00
2023-04-28T00:50:20.169Z,12.00
2023-04-28T00:52:49.680Z,11.90
2023-04-28T00:55:18.270Z,11.80
2023-04-28T00:57:47.160Z,11.80
2023-04-28T01:00:17.868Z,11.70
2023-04-28T01:02:46.397Z,11.70
2023-04-28T01:05:16.157Z,11.70
2023-04-28T01:07:44.766Z,11.70
2023-04-28T01:10:13.265Z,11.70
2023-04-28T01:12:41.609Z,11.60
2023-04-28T01:15:18.548Z,11.60
2023-04-28T01:17:49.378Z,11.60
2023-04-28T01:20:17.950Z,11.50
2023-04-28T01:22:46.524Z,11.40
2023-04-28T01:25:16.855Z,11.30
2023-04-28T01:27:45.292Z,11.20
2023-04-28T01:30:13.787Z,11.20
2023-04-28T01:32:43.050Z,11.20
2023-04-28T01:35:11.535Z,11.10
2023-04-28T01:37:39.976Z,11.10
2023-04-28T01:40:09.364Z,11.10
2023-04-28T01:42:39.570Z,11.20
2023-04-28T01:45:08.757Z,11.20
2023-04-28T01:47:38.161Z,11.10
2023-04-28T01:50:07.483Z,11.00
2023-04-28T01:52:37.394Z,11.10
2023-04-28T01:55:06.633Z,11.20
2023-04-28T01:57:36.175Z,11.10
2023-04-28T02:00:08.249Z,11.00
2023-04-28T02:02:39.313Z,10.80
2023-04-28T02:05:08.594Z,10.70
2023-04-28T02:07:36.972Z,10.60
2023-04-28T02:10:05.983Z,10.70
2023-04-28T02:12:34.301Z,10.60
2023-04-28T02:15:02.654Z,10.60
2023-04-28T02:17:33.120Z,10.40
2023-04-28T02:20:02.401Z,10.50
2023-04-28T02:22:30.996Z,10.60
2023-04-28T02:24:59.350Z,10.60
2023-04-28T02:27:27.729Z,10.60
2023-04-28T02:29:56.948Z,10.60
2023-04-28T02:32:25.431Z,10.70
2023-04-28T02:34:56.437Z,10.60
2023-04-28T02:37:25.235Z,10.60
2023-04-28T02:39:53.730Z,10.50
2023-04-28T02:42:24.150Z,10.40
2023-04-28T02:44:52.685Z,10.40
2023-04-28T02:47:21.161Z,10.40
2023-04-28T02:49:49.879Z,10.40
2023-04-28T02:52:19.726Z,10.50
2023-04-28T02:54:49.382Z,10.60
2023-04-28T02:57:19.106Z,10.60
2023-04-28T02:59:47.568Z,10.70
2023-04-28T03:02:16.010Z,10.60
2023-04-28T03:04:44.541Z,10.60
2023-04-28T03:07:13.008Z,10.40
2023-04-28T03:09:42.744Z,10.40
2023-04-28T03:12:11.118Z,10.40
2023-04-28T03:14:39.424Z,10.30
2023-04-28T03:17:07.780Z,10.30
2023-04-28T03:19:36.400Z,10.30
2023-04-28T03:22:04.753Z,10.40
2023-04-28T03:24:34.481Z,10.30
2023-04-28T03:27:06.743Z,10.40
2023-04-28T03:29:38.117Z,10.40
2023-04-28T03:32:07.051Z,10.50
2023-04-28T03:34:35.694Z,10.60
2023-04-28T03:37:04.359Z,10.70
2023-04-28T03:39:32.688Z,10.70
2023-04-28T03:42:01.186Z,10.70
2023-04-28T03:44:39.598Z,10.80
2023-04-28T03:47:09.074Z,10.80
2023-04-28T03:49:38.250Z,10.80
2023-04-28T03:52:06.745Z,10.80
2023-04-28T03:54:36.110Z,10.70
2023-04-28T03:57:05.521Z,10.70
2023-04-28T03:59:35.019Z,10.70
2023-04-28T04:02:04.769Z,10.50
2023-04-28T04:04:33.412Z,10.50
2023-04-28T04:07:02.157Z,10.50
2023-04-28T04:09:31.128Z,10.40
2023-04-28T04:12:01.195Z,10.40
2023-04-28T04:14:29.568Z,10.40
2023-04-28T04:16:57.987Z,10.40
2023-04-28T04:19:28.147Z,10.40
2023-04-28T04:21:57.840Z,10.50
2023-04-28T04:24:26.604Z,10.50
2023-04-28T04:26:55.289Z,10.40
2023-04-28T04:29:33.394Z,10.60
2023-04-28T04:32:05.510Z,10.60
2023-04-28T04:34:36.027Z,10.70
2023-04-28T04:37:05.043Z,10.70
2023-04-28T04:39:34.484Z,10.50
2023-04-28T04:42:13.402Z,10.40
2023-04-28T04:45:23.746Z,10.40
2023-04-28T04:47:54.123Z,10.60
2023-04-28T04:50:24.037Z,10.70
2023-04-28T04:52:54.552Z,10.80
2023-04-28T04:55:22.880Z,10.90
2023-04-28T04:57:51.646Z,11.00
2023-04-28T05:00:39.138Z,11.20
2023-04-28T05:03:09.203Z,11.30
2023-04-28T05:05:39.309Z,11.50
2023-04-28T05:08:22.762Z,11.60
2023-04-28T05:10:51.182Z,11.60
2023-04-28T05:13:19.563Z,11.60
2023-04-28T05:15:55.315Z,11.60
2023-04-28T05:18:43.929Z,11.80
2023-04-28T05:21:14.690Z,11.90
2023-04-28T05:23:42.973Z,12.10
2023-04-28T05:26:11.552Z,12.80
2023-04-28T05:28:41.174Z,13.30
2023-04-28T05:31:10.381Z,13.30
2023-04-28T05:33:39.341Z,13.20
2023-04-28T05:36:08.496Z,13.20
2023-04-28T05:38:38.509Z,13.10
2023-04-28T05:41:07.327Z,13.20
2023-04-28T05:43:36.105Z,13.20
2023-04-28T05:46:09.754Z,13.30
2023-04-28T05:48:43.384Z,13.30
2023-04-28T05:51:12.761Z,13.40
2023-04-28T05:53:42.877Z,13.50
2023-04-28T05:56:11.294Z,13.50
2023-04-28T05:58:39.628Z,13.60
2023-04-28T06:01:08.204Z,13.50
2023-04-28T06:03:36.893Z,13.40
2023-04-28T06:06:09.991Z,13.40
2023-04-28T06:08:40.026Z,13.50
2023-04-28T06:11:09.826Z,13.60
2023-04-28T06:13:38.182Z,13.60
2023-04-28T06:16:07.728Z,13.60
2023-04-28T06:18:36.537Z,13.50
2023-04-28T06:21:06.085Z,13.60
2023-04-28T06:23:35.770Z,13.80
2023-04-28T06:26:04.406Z,14.00
2023-04-28T06:28:34.430Z,14.00
2023-04-28T06:31:02.886Z,14.00
2023-04-28T06:33:31.408Z,14.20
2023-04-28T06:35:59.762Z,14.40
2023-04-28T06:38:28.152Z,14.50
2023-04-28T06:40:56.535Z,14.60
2023-04-28T06:43:25.097Z,14.70
2023-04-28T06:46:10.045Z,14.80
2023-04-28T06:48:38.501Z,14.90
2023-04-28T06:51:06.986Z,15.00
2023-04-28T06:53:37.297Z,15.20
2023-04-28T06:56:11.181Z,15.30
2023-04-28T06:58:40.306Z,15.40
2023-04-28T07:01:10.128Z,15.60
2023-04-28T07:03:39.498Z,15.70
2023-04-28T07:06:08.284Z,15.70
2023-04-28T07:08:37.003Z,15.90
2023-04-28T07:11:06.308Z,16.10
2023-04-28T07:13:34.686Z,16.20
2023-04-28T07:16:03.421Z,16.20
2023-04-28T07:18:33.139Z,16.20
2023-04-28T07:21:04.142Z,16.20
2023-04-28T07:23:33.799Z,16.30
2023-04-28T07:26:02.151Z,16.50
2023-04-28T07:28:30.580Z,16.40
2023-04-28T07:30:59.018Z,16.50
2023-04-28T07:33:28.281Z,16.70
2023-04-28T07:35:58.019Z,16.70
2023-04-28T07:38:26.411Z,16.70
2023-04-28T07:40:54.800Z,16.90
2023-04-28T07:43:23.290Z,17.10
2023-04-28T07:45:51.704Z,17.10
2023-04-28T07:48:21.004Z,17.10
2023-04-28T07:50:49.401Z,17.30
2023-04-28T07:53:19.283Z,17.50
2023-04-28T07:55:47.781Z,17.60
2023-04-28T07:58:16.882Z,17.70
2023-04-28T08:00:45.250Z,17.70
2023-04-28T08:03:13.800Z,17.70
2023-04-28T08:05:42.493Z,17.80
2023-04-28T08:08:10.886Z,17.70
2023-04-28T08:10:42.147Z,17.70
2023-04-28T08:13:10.578Z,17.90
2023-04-28T08:15:38.978Z,17.80
2023-04-28T08:18:08.607Z,17.70
2023-04-28T08:20:36.990Z,17.70
2023-04-28T08:23:05.336Z,17.60
2023-04-28T08:25:33.648Z,17.60
2023-04-28T08:28:03.812Z,17.50
2023-04-28T08:30:32.169Z,17.70
2023-04-28T08:33:00.554Z,17.80
2023-04-28T08:35:28.925Z,17.90
2023-04-28T08:37:57.396Z,18.10
2023-04-28T08:40:27.076Z,18.10
2023-04-28T08:42:57.326Z,18.20
2023-04-28T08:45:28.426Z,18.20
2023-04-28T08:48:00.328Z,18.20
2023-04-28T08:50:32.800Z,18.10
2023-04-28T08:53:05.580Z,18.20
2023-04-28T08:55:35.186Z,18.00
2023-04-28T08:58:04.529Z,18.10
2023-04-28T09:00:34.404Z,18.10
2023-04-28T09:03:02.844Z,18.20
2023-04-28T09:05:31.385Z,18.30
2023-04-28T09:07:59.761Z,18.10
2023-04-28T09:10:28.320Z,18.10
2023-04-28T09:12:58.581Z,18.10
2023-04-28T09:15:28.261Z,18.20
2023-04-28T09:17:58.315Z,18.30
2023-04-28T09:20:28.210Z,18.30
2023-04-28T09:23:13.204Z,18.50
2023-04-28T09:25:41.569Z,18.70
2023-04-28T09:28:23.022Z,18.80
2023-04-28T09:30:51.457Z,18.60
2023-04-28T09:33:21.874Z,18.60
2023-04-28T09:35:50.463Z,18.60
2023-04-28T09:38:20.641Z,18.50
2023-04-28T09:40:56.852Z,18.60
2023-04-28T09:43:26.930Z,18.50
2023-04-28T09:45:55.850Z,18.60
2023-04-28T09:48:36.377Z,18.60
2023-04-28T09:51:06.404Z,18.70
2023-04-28T09:53:35.995Z,18.80
2023-04-28T09:56:06.557Z,18.90
2023-04-28T09:58:39.325Z,18.70
2023-04-28T10:01:12.796Z,18.70
2023-04-28T10:03:44.588Z,18.70
2023-04-28T10:06:13.571Z,18.80
2023-04-28T10:08:42.224Z,18.80
2023-04-28T10:11:10.728Z,18.80
2023-04-28T10:13:39.255Z,18.90
2023-04-28T10:16:09.267Z,18.80
2023-04-28T10:18:39.128Z,18.90
2023-04-28T10:21:09.742Z,18.80
2023-04-28T10:24:09.128Z,18.80
2023-04-28T10:27:05.458Z,18.90
2023-04-28T10:29:34.736Z,18.90
2023-04-28T10:32:26.559Z,19.10
2023-04-28T10:35:15.246Z,19.10
2023-04-28T10:38:06.875Z,19.20
2023-04-28T10:40:36.949Z,19.20
2023-04-28T10:43:06.304Z,19.10
2023-04-28T10:46:14.882Z,19.20
2023-04-28T10:49:08.325Z,19.40
2023-04-28T10:51:37.755Z,19.40
2023-04-28T10:54:30.297Z,19.60
2023-04-28T10:57:21.513Z,19.80
2023-04-28T10:59:50.803Z,19.70
2023-04-28T11:02:44.896Z,19.90
2023-04-28T11:05:19.298Z,20.00
2023-04-28T11:08:27.689Z,20.20
2023-04-28T11:11:30.899Z,20.00
2023-04-28T11:14:31.669Z,20.20
2023-04-28T11:17:03.185Z,20.30
2023-04-28T11:19:33.683Z,20.50
2023-04-28T11:22:03.555Z,20.30
2023-04-28T11:24:32.655Z,20.40
2023-04-28T11:27:03.357Z,20.40
2023-04-28T11:29:36.365Z,20.50
2023-04-28T11:32:05.279Z,20.80
2023-04-28T11:34:34.328Z,20.60
2023-04-28T11:37:03.190Z,20.70
2023-04-28T11:39:33.324Z,20.70
2023-04-28T11:42:11.565Z,20.40
2023-04-28T11:44:40.217Z,20.40
2023-04-28T11:47:08.974Z,20.60
2023-04-28T11:49:45.188Z,20.80
2023-04-28T11:52:14.160Z,20.90
2023-04-28T11:54:43.785Z,20.80
2023-04-28T11:57:21.598Z,20.80
2023-04-28T11:59:51.186Z,20.90
2023-04-28T12:02:29.748Z,20.80
2023-04-28T12:05:06.751Z,20.90
2023-04-28T12:07:44.078Z,21.10
2023-04-28T12:10:14.030Z,21.50
2023-04-28T12:12:50.949Z,21.40
2023-04-28T12:15:22.137Z,21.30
2023-04-28T12:17:52.011Z,21.40
2023-04-28T12:20:37.272Z,21.40
2023-04-28T12:23:07.502Z,21.00
2023-04-28T12:25:45.132Z,20.90
2023-04-28T12:28:15.737Z,21.10
2023-04-28T12:30:44.238Z,21.00
2023-04-28T12:33:25.175Z,21.20
2023-04-28T12:35:56.042Z,21.20
2023-04-28T12:38:24.657Z,21.30
2023-04-28T12:40:53.388Z,21.40
2023-04-28T12:43:24.261Z,21.80
2023-04-28T12:45:54.473Z,21.60
2023-04-28T12:48:24.165Z,21.50
2023-04-28T12:50:52.791Z,21.60
2023-04-28T12:53:21.488Z,21.90
2023-04-28T12:55:50.245Z,21.90
2023-04-28T12:58:19.342Z,21.80
2023-04-28T13:00:49.094Z,22.00
2023-04-28T13:03:17.566Z,21.90
2023-04-28T13:05:46.048Z,22.10
2023-04-28T13:08:14.654Z,22.20
2023-04-28T13:10:43.032Z,22.20
2023-04-28T13:13:11.787Z,22.10
2023-04-28T13:15:40.356Z,22.40
2023-04-28T13:18:10.088Z,22.40
2023-04-28T13:20:38.482Z,22.80
2023-04-28T13:23:06.751Z,23.10
2023-04-28T13:25:35.174Z,23.00
2023-04-28T13:28:03.665Z,23.80
2023-04-28T13:30:33.411Z,24.90
2023-04-28T13:33:01.773Z,25.80
2023-04-28T13:35:32.539Z,25.80
2023-04-28T13:38:02.763Z,26.40
2023-04-28T13:40:31.343Z,28.10
2023-04-28T13:42:59.688Z,27.60
2023-04-28T13:45:28.794Z,28.20
2023-04-28T13:47:57.199Z,29.30
2023-04-28T13:50:25.891Z,28.70
2023-04-28T13:52:55.515Z,28.70
2023-04-28T13:55:27.941Z,29.20
2023-04-28T13:58:01.586Z,29.90
2023-04-28T14:00:30.051Z,29.70
2023-04-28T14:02:58.535Z,29.30
2023-04-28T14:05:29.743Z,30.40
2023-04-28T14:07:59.722Z,30.90
2023-04-28T14:10:27.999Z,29.50
2023-04-28T14:12:56.410Z,28.30
2023-04-28T14:15:24.761Z,28.80
2023-04-28T14:17:53.101Z,28.30
2023-04-28T14:20:21.587Z,28.30
2023-04-28T14:22:49.947Z,28.80
2023-04-28T14:25:20.315Z,29.00
2023-04-28T14:27:50.236Z,29.20
2023-04-28T14:30:19.518Z,28.80
2023-04-28T14:32:47.926Z,28.60
2023-04-28T14:35:17.431Z,27.90
2023-04-28T14:37:46.577Z,27.90
2023-04-28T14:40:16.686Z,27.10
2023-04-28T14:42:47.336Z,26.60
2023-04-28T14:45:15.740Z,26.10
2023-04-28T14:47:44.197Z,25.80
2023-04-28T14:50:13.959Z,25.30
2023-04-28T14:52:42.742Z,25.10
2023-04-28T14:55:11.325Z,24.90
2023-04-28T14:57:39.657Z,24.60
2023-04-28T15:00:10.777Z,23.60
2023-04-28T15:02:39.309Z,22.60
2023-04-28T15:05:08.947Z,22.10
2023-04-28T15:07:37.497Z,22.00
2023-04-28T15:10:06.220Z,22.70
2023-04-28T15:12:34.589Z,23.60
2023-04-28T15:15:02.890Z,24.60
2023-04-28T15:17:32.647Z,25.30
2023-04-28T15:20:01.052Z,26.20
2023-04-28T15:22:29.383Z,26.80
2023-04-28T15:24:57.777Z,27.00
2023-04-28T15:27:26.180Z,26.60
2023-04-28T15:29:54.492Z,25.90
2023-04-28T15:32:23.434Z,25.90
2023-04-28T15:34:53.341Z,25.30
2023-04-28T15:37:43.016Z,25.50
2023-04-28T15:40:13.346Z,25.10
2023-04-28T15:42:45.012Z,25.50
2023-04-28T15:45:13.590Z,25.50
2023-04-28T15:47:42.714Z,24.70
2023-04-28T15:50:12.670Z,25.40
2023-04-28T15:52:46.029Z,25.50
2023-04-28T15:55:15.194Z,26.30
2023-04-28T15:57:44.414Z,26.30
2023-04-28T16:00:14.905Z,25.90
2023-04-28T16:02:44.408Z,26.10
2023-04-28T16:05:14.576Z,26.70
2023-04-28T16:07:43.090Z,27.00
2023-04-28T16:10:13.703Z,27.90
2023-04-28T16:12:43.212Z,27.90
2023-04-28T16:15:13.676Z,27.00
2023-04-28T16:17:44.455Z,26.50
2023-04-28T16:20:14.519Z,26.50
2023-04-28T16:22:43.187Z,27.20
2023-04-28T16:25:12.355Z,27.40
2023-04-28T16:27:41.735Z,27.00
2023-04-28T16:30:10.954Z,26.90
2023-04-28T16:32:40.747Z,26.80
2023-04-28T16:35:15.115Z,26.50
2023-04-28T16:37:45.463Z,26.00
2023-04-28T16:40:14.337Z,25.50
2023-04-28T16:42:45.010Z,25.90
2023-04-28T16:45:13.912Z,25.80
2023-04-28T16:47:43.914Z,25.70
2023-04-28T16:50:14.914Z,26.30
2023-04-28T16:52:45.049Z,26.40
2023-04-28T16:55:13.531Z,26.20
2023-04-28T16:57:41.848Z,26.30
2023-04-28T17:00:11.476Z,26.20
2023-04-28T17:02:39.849Z,26.10
2023-04-28T17:05:09.220Z,25.50
2023-04-28T17:07:37.616Z,24.90
2023-04-28T17:10:08.393Z,24.40
2023-04-28T17:12:36.684Z,23.50
2023-04-28T17:15:06.012Z,22.60
2023-04-28T17:17:34.737Z,21.80
2023-04-28T17:20:03.560Z,21.10
2023-04-28T17:22:33.061Z,20.50
2023-04-28T17:25:01.597Z,19.80
2023-04-28T17:27:31.669Z,19.30
2023-04-28T17:30:00.896Z,19.20
2023-04-28T17:32:31.080Z,18.80
2023-04-28T17:34:59.691Z,18.40
2023-04-28T17:37:28.048Z,18.20
2023-04-28T17:39:56.399Z,18.10
2023-04-28T17:42:24.904Z,18.00
2023-04-28T17:44:54.634Z,17.90
2023-04-28T17:47:22.923Z,17.80
2023-04-28T17:49:51.844Z,17.80
2023-04-28T17:52:20.826Z,17.70
2023-04-28T17:54:49.957Z,17.60
2023-04-28T17:57:19.009Z,17.40
2023-04-28T17:59:52.169Z,17.30
2023-04-28T18:02:21.976Z,17.20
2023-04-28T18:04:51.023Z,17.10
2023-04-28T18:07:19.710Z,17.10
2023-04-28T18:09:48.082Z,17.10
2023-04-28T18:12:16.568Z,17.10
2023-04-28T18:14:45.506Z,17.20
2023-04-28T18:17:13.832Z,17.20
2023-04-28T18:19:43.578Z,17.10
2023-04-28T18:22:11.906Z,16.90
2023-04-28T18:24:40.412Z,16.90
2023-04-28T18:27:09.258Z,16.80
2023-04-28T18:29:37.637Z,16.70
2023-04-28T18:32:06.121Z,16.60
2023-04-28T18:34:35.268Z,16.40
2023-04-28T18:37:04.895Z,16.30
2023-04-28T18:39:33.276Z,16.30
2023-04-28T18:42:04.303Z,16.30
2023-04-28T18:44:32.918Z,16.50
2023-04-28T18:47:01.336Z,16.50
2023-04-28T18:49:30.179Z,16.60
2023-04-28T18:52:01.357Z,16.60
2023-04-28T18:54:31.392Z,16.70
2023-04-28T18:56:59.859Z,16.70
2023-04-28T18:59:28.208Z,16.60
2023-04-28T19:01:56.564Z,16.50
2023-04-28T19:04:25.187Z,16.40
2023-04-28T19:06:53.681Z,16.10
2023-04-28T19:09:22.089Z,15.70
2023-04-28T19:11:51.915Z,15.60
2023-04-28T19:14:20.181Z,15.50
2023-04-28T19:16:48.527Z,15.50
2023-04-28T19:19:16.900Z,15.40
2023-04-28T19:21:45.968Z,15.20
2023-04-28T19:24:14.331Z,15.10
2023-04-28T19:26:42.596Z,14.90
2023-04-28T19:29:14.993Z,15.00
2023-04-28T19:31:43.354Z,14.90
2023-04-28T19:34:11.647Z,15.00
2023-04-28T19:36:40.094Z,15.10
2023-04-28T19:39:08.461Z,15.10
2023-04-28T19:41:37.475Z,15.10
2023-04-28T19:44:05.782Z,15.20
2023-04-28T19:46:35.995Z,15.20
2023-04-28T19:49:04.412Z,15.00
2023-04-28T19:51:33.135Z,14.90
2023-04-28T19:54:01.764Z,14.80
2023-04-28T19:56:31.975Z,14.60
2023-04-28T19:59:00.258Z,14.60
2023-04-28T20:01:28.665Z,14.50
2023-04-28T20:03:58.824Z,14.50
2023-04-28T20:06:27.903Z,14.60
2023-04-28T20:08:56.312Z,14.60
2023-04-28T20:11:24.794Z,14.50
2023-04-28T20:13:53.067Z,14.40
2023-04-28T20:16:21.476Z,14.40
2023-04-28T20:18:49.796Z,14.40
2023-04-28T20:21:19.652Z,14.20
2023-04-28T20:23:47.985Z,14.20
2023-04-28T20:26:16.624Z,14.30
2023-04-28T20:28:47.554Z,14.20
2023-04-28T20:31:16.440Z,14.30
2023-04-28T20:33:44.718Z,14.40
2023-04-28T20:36:14.681Z,14.40
2023-04-28T20:38:44.471Z,14.50
2023-04-28T20:41:12.829Z,14.50
2023-04-28T20:43:42.163Z,14.50
2023-04-28T20:46:13.333Z,14.50
2023-04-28T20:48:42.324Z,14.60
2023-04-28T20:51:11.053Z,14.70
2023-04-28T20:53:39.743Z,14.70
2023-04-28T20:56:09.616Z,14.60
2023-04-28T20:58:38.413Z,14.70
2023-04-28T21:01:07.341Z,14.70
2023-04-28T21:03:35.779Z,14.80
2023-04-28T21:06:04.379Z,14.80
2023-04-28T21:08:32.823Z,14.70
2023-04-28T21:11:01.361Z,14.60
2023-04-28T21:13:31.526Z,14.70
2023-04-28T21:15:59.898Z,14.80
2023-04-28T21:18:28.218Z,14.80
2023-04-28T21:20:56.661Z,14.90
2023-04-28T21:23:24.943Z,14.80
2023-04-28T21:25:54.247Z,14.80
2023-04-28T21:28:22.581Z,14.90
2023-04-28T21:30:54.364Z,15.00
2023-04-28T21:33:23.608Z,15.10
2023-04-28T21:35:51.853Z,15.10
2023-04-28T21:38:20.127Z,15.00
2023-04-28T21:40:48.758Z,15.00
2023-04-28T21:43:17.113Z,15.00
2023-04-28T21:45:45.560Z,15.00
2023-04-28T21:48:15.918Z,14.90
2023-04-28T21:50:44.491Z,14.90
2023-04-28T21:53:13.719Z,14.90
2023-04-28T21:55:43.006Z,14.90
2023-04-28T21:58:12.298Z,15.00
2023-04-28T22:00:43.285Z,14.90
2023-04-28T22:03:12.429Z,14.90
2023-04-28T22:05:43.715Z,14.90
2023-04-28T22:08:12.371Z,15.00
2023-04-28T22:10:42.332Z,14.90
2023-04-28T22:13:11.366Z,15.00
2023-04-28T22:15:42.260Z,15.00
2023-04-28T22:18:10.730Z,15.10
2023-04-28T22:20:39.085Z,15.20
2023-04-28T22:23:09.676Z,15.10
2023-04-28T22:25:38.099Z,15.10
2023-04-28T22:28:06.491Z,15.00
2023-04-28T22:30:35.054Z,14.90
2023-04-28T22:33:03.965Z,15.00
2023-04-28T22:35:32.251Z,15.00
2023-04-28T22:38:00.578Z,15.10
2023-04-28T22:40:30.221Z,15.10
2023-04-28T22:42:58.570Z,15.10
2023-04-28T22:45:26.889Z,15.20
2023-04-28T22:47:55.299Z,15.20
2023-04-28T22:50:23.892Z,15.20
2023-04-28T22:52:52.619Z,15.20
2023-04-28T22:55:21.103Z,15.20
2023-04-28T22:57:50.841Z,15.20
2023-04-28T23:00:19.467Z,15.20
2023-04-28T23:02:48.086Z,15.20
2023-04-28T23:05:16.605Z,15.20
2023-04-28T23:07:45.181Z,15.20
2023-04-28T23:10:14.699Z,15.20
2023-04-28T23:12:43.948Z,15.20
2023-04-28T23:15:13.892Z,15.20
2023-04-28T23:17:43.086Z,15.20
2023-04-28T23:20:12.481Z,15.30
2023-04-28T23:22:40.780Z,15.20
2023-04-28T23:25:09.799Z,15.20
2023-04-28T23:27:38.069Z,15.20
2023-04-28T23:30:07.679Z,15.20
2023-04-28T23:32:38.647Z,15.20
2023-04-28T23:35:07.482Z,15.10
2023-04-28T23:37:35.773Z,15.10
2023-04-28T23:40:04.415Z,15.10
2023-04-28T23:42:32.745Z,14.90
2023-04-28T23:45:01.518Z,14.70
2023-04-28T23:47:30.710Z,14.40
2023-04-28T23:50:00.413Z,14.30
2023-04-28T23:52:28.699Z,14.30
2023-04-28T23:54:57.106Z,14.40
2023-04-28T23:57:25.902Z,14.30
2023-04-28T23:59:54.612Z,14.40
